Time;durP1;ratioP1;P1;durP2;ratioP2;P2;SDS_P1;SDS_P2;PMS_P1;PMS_P2;Temp;Humidity;BMP_temperature;BMP_pressure;BME280_temperature;BME280_humidity;BME280_pressure;Samples;Min_cycle;Max_cycle;Signal;HPM_P1;HPM_P2
2021/12/12 00:01:53;;;;;;;87.88;37.33;;;0.80;92.70;;;;;;5072473;28;20328;-84
2021/12/12 00:04:37;;;;;;;88.35;38.30;;;0.70;92.80;;;;;;5073845;28;20021;-84
2021/12/12 00:07:08;;;;;;;83.93;37.92;;;0.70;93.00;;;;;;5073521;28;20358;-86
2021/12/12 00:09:42;;;;;;;88.72;36.83;;;0.60;93.20;;;;;;5073814;28;20100;-85
2021/12/12 00:12:13;;;;;;;80.53;35.83;;;0.60;93.20;;;;;;5072378;28;20024;-85
2021/12/12 00:14:39;;;;;;;85.63;36.97;;;0.60;93.30;;;;;;5073541;28;20013;-85
2021/12/12 00:17:09;;;;;;;90.13;37.33;;;0.50;93.30;;;;;;5072189;28;20101;-85
2021/12/12 00:19:37;;;;;;;90.13;39.30;;;0.50;93.40;;;;;;5055494;28;20514;-85
2021/12/12 00:22:11;;;;;;;81.15;36.15;;;0.50;93.60;;;;;;5055803;28;20036;-85
2021/12/12 00:24:39;;;;;;;89.13;38.38;;;0.40;93.60;;;;;;5072239;28;20017;-85
2021/12/12 00:27:08;;;;;;;84.38;40.15;;;0.40;93.70;;;;;;5072123;28;20043;-84
2021/12/12 00:29:36;;;;;;;79.95;34.30;;;0.30;93.60;;;;;;5055622;28;20065;-84
2021/12/12 00:32:09;;;;;;;78.95;34.20;;;0.30;94.10;;;;;;5055351;28;20036;-83
2021/12/12 00:35:00;;;;;;;75.45;33.53;;;0.30;93.80;;;;;;5075201;28;20028;-83
2021/12/12 00:37:28;;;;;;;84.53;37.20;;;0.20;94.00;;;;;;5073135;28;20028;-84
2021/12/12 00:39:58;;;;;;;80.28;35.88;;;0.20;94.30;;;;;;5073701;28;20031;-82
2021/12/12 00:42:31;;;;;;;71.13;33.85;;;0.10;94.40;;;;;;5072568;28;20037;-82
2021/12/12 00:45:09;;;;;;;75.03;35.88;;;0.10;94.50;;;;;;5055578;28;20048;-82
2021/12/12 00:47:37;;;;;;;77.15;37.45;;;0.10;94.50;;;;;;5072190;28;20062;-82
2021/12/12 00:50:10;;;;;;;76.95;36.30;;;0.10;94.60;;;;;;5072751;28;20040;-82
2021/12/12 00:52:37;;;;;;;72.40;36.85;;;0.00;94.70;;;;;;5039249;28;20025;-82
2021/12/12 00:55:04;;;;;;;81.55;36.88;;;0.00;94.80;;;;;;5072337;28;20068;-83
2021/12/12 00:57:31;;;;;;;79.03;36.63;;;0.00;94.80;;;;;;5073679;28;20031;-82
2021/12/12 00:59:59;;;;;;;81.72;34.63;;;-0.10;94.70;;;;;;5055268;28;20032;-83
2021/12/12 01:02:29;;;;;;;74.90;36.58;;;-0.10;94.70;;;;;;5071944;28;20108;-82
2021/12/12 01:04:59;;;;;;;75.30;34.85;;;-0.20;94.70;;;;;;5071868;28;20017;-82
2021/12/12 01:07:35;;;;;;;90.55;39.35;;;-0.20;94.90;;;;;;5055285;28;20124;-82
2021/12/12 01:10:14;;;;;;;76.55;35.80;;;-0.20;95.00;;;;;;5071650;28;20452;-81
2021/12/12 01:12:42;;;;;;;83.53;36.97;;;-0.30;95.20;;;;;;5071651;28;20024;-82
2021/12/12 01:15:37;;;;;;;78.38;37.17;;;-0.30;95.10;;;;;;5071621;28;20068;-82
2021/12/12 01:18:22;;;;;;;82.43;36.53;;;-0.40;95.20;;;;;;5044533;28;20045;-83
2021/12/12 01:20:57;;;;;;;88.30;38.90;;;-0.40;95.20;;;;;;5071838;28;20044;-82
2021/12/12 01:23:35;;;;;;;84.00;38.42;;;-0.50;95.50;;;;;;5071779;28;20020;-83
2021/12/12 01:26:04;;;;;;;96.80;40.35;;;-0.50;95.70;;;;;;5073201;28;20493;-82
2021/12/12 01:28:33;;;;;;;88.85;36.80;;;-0.50;95.70;;;;;;5082339;28;20009;-83
2021/12/12 01:31:04;;;;;;;92.13;40.58;;;-0.60;95.70;;;;;;5090286;28;20036;-84
2021/12/12 01:33:34;;;;;;;83.80;37.35;;;-0.60;96.10;;;;;;5089348;28;20025;-84
2021/12/12 01:36:22;;;;;;;86.65;39.33;;;-0.60;96.30;;;;;;5088719;28;20016;-82
2021/12/12 01:38:52;;;;;;;82.28;38.92;;;-0.60;96.30;;;;;;5073960;28;20062;-83
2021/12/12 01:42:01;;;;;;;90.53;37.20;;;-0.60;96.30;;;;;;5074356;28;20044;-83
2021/12/12 01:44:59;;;;;;;83.53;37.70;;;-0.60;96.30;;;;;;5072849;28;20020;-83
2021/12/12 01:47:53;;;;;;;87.28;37.58;;;-0.70;96.30;;;;;;5072585;28;20040;-83
2021/12/12 01:50:32;;;;;;;90.10;39.17;;;-0.70;96.40;;;;;;5051536;28;20036;-84
2021/12/12 01:53:00;;;;;;;88.95;39.70;;;-0.70;96.60;;;;;;5072893;28;20036;-83
2021/12/12 01:55:36;;;;;;;81.80;38.97;;;-0.80;96.70;;;;;;5072097;28;20024;-85
2021/12/12 01:58:09;;;;;;;88.85;37.22;;;-0.80;96.80;;;;;;5075592;28;20394;-85
2021/12/12 02:00:49;;;;;;;99.20;41.00;;;-0.80;96.80;;;;;;5059164;28;20020;-86
2021/12/12 02:03:22;;;;;;;96.85;40.47;;;-0.80;96.80;;;;;;5077468;28;20024;-86
2021/12/12 02:05:49;;;;;;;94.22;38.88;;;-0.80;96.90;;;;;;5077476;28;20036;-83
2021/12/12 02:08:26;;;;;;;98.20;41.72;;;-0.80;96.90;;;;;;5080921;28;20444;-83
2021/12/12 02:10:58;;;;;;;93.63;39.03;;;-0.90;96.80;;;;;;5095077;28;20461;-81
2021/12/12 02:13:27;;;;;;;91.63;40.97;;;-0.90;96.90;;;;;;5078484;28;20032;-82
2021/12/12 02:15:57;;;;;;;93.82;39.28;;;-0.90;97.00;;;;;;5087263;28;20016;-81
2021/12/12 02:18:28;;;;;;;89.55;40.33;;;-0.90;97.00;;;;;;5085429;28;20069;-82
2021/12/12 02:21:21;;;;;;;103.75;41.28;;;-0.90;97.00;;;;;;5096242;28;20098;-83
2021/12/12 02:37:30;;;;;;;101.85;44.33;;;-1.10;97.10;;;;;;5074657;28;20075;-85
2021/12/12 02:39:56;;;;;;;110.13;47.45;;;-1.10;97.00;;;;;;5074311;28;20063;-84
2021/12/12 02:42:23;;;;;;;105.00;44.05;;;-1.10;97.00;;;;;;5057425;28;20070;-84
2021/12/12 02:44:56;;;;;;;89.78;41.72;;;-1.10;97.10;;;;;;5057114;28;20041;-83
2021/12/12 02:47:32;;;;;;;98.10;43.67;;;-1.10;97.10;;;;;;5074909;28;20029;-84
2021/12/12 02:50:10;;;;;;;100.15;43.78;;;-1.10;97.10;;;;;;5073758;28;20047;-83
2021/12/12 02:52:47;;;;;;;99.47;42.53;;;-1.20;97.00;;;;;;5073946;28;20020;-83
2021/12/12 02:55:27;;;;;;;111.47;43.33;;;-1.20;97.20;;;;;;5058386;28;20473;-84
2021/12/12 02:57:57;;;;;;;97.72;43.65;;;-1.20;97.20;;;;;;5074861;28;20059;-83
2021/12/12 03:00:30;;;;;;;106.55;46.20;;;-1.20;97.30;;;;;;5073924;28;20036;-84
2021/12/12 03:03:00;;;;;;;107.40;44.60;;;-1.20;97.30;;;;;;5073783;28;20115;-83
2021/12/12 03:05:43;;;;;;;108.38;45.33;;;-1.30;97.30;;;;;;5057107;28;20461;-84
2021/12/12 03:08:10;;;;;;;104.68;45.83;;;-1.30;97.40;;;;;;5076895;28;20040;-84
2021/12/12 03:10:52;;;;;;;97.35;41.53;;;-1.30;97.50;;;;;;5075723;28;20020;-84
2021/12/12 03:13:27;;;;;;;102.20;42.22;;;-1.30;97.50;;;;;;5086613;28;20131;-84
2021/12/12 03:16:01;;;;;;;106.55;45.28;;;-1.30;97.50;;;;;;5083744;28;20077;-83
2021/12/12 03:18:32;;;;;;;104.25;43.45;;;-1.30;97.50;;;;;;5077740;28;20025;-84
2021/12/12 03:21:03;;;;;;;107.20;45.13;;;-1.30;97.50;;;;;;5056683;28;20115;-85
2021/12/12 03:23:40;;;;;;;108.88;42.83;;;-1.30;97.40;;;;;;5074619;28;20024;-85
2021/12/12 03:26:23;;;;;;;114.70;46.67;;;-1.40;97.50;;;;;;5076117;28;20551;-83
2021/12/12 03:28:54;;;;;;;109.57;43.53;;;-1.40;97.30;;;;;;5093296;28;20385;-83
2021/12/12 03:31:22;;;;;;;;;;;-1.50;97.20;;;;;;5077271;28;20021;-83
2021/12/12 03:33:49;;;;;;;114.35;45.97;;;-1.50;97.20;;;;;;5076285;28;19961;-83
2021/12/12 03:36:17;;;;;;;111.10;46.25;;;-1.50;97.10;;;;;;5093157;28;20028;-83
2021/12/12 03:38:56;;;;;;;117.32;46.92;;;-1.60;97.10;;;;;;5094477;28;20012;-84
2021/12/12 03:41:29;;;;;;;111.57;46.08;;;-1.60;97.10;;;;;;5076006;28;20052;-83
2021/12/12 03:44:01;;;;;;;118.85;47.72;;;-1.70;97.00;;;;;;5073957;28;20095;-84
2021/12/12 03:46:28;;;;;;;116.80;47.00;;;-1.70;97.30;;;;;;5073735;28;20450;-83
2021/12/12 03:48:56;;;;;;;116.72;46.78;;;-1.70;97.60;;;;;;5072746;28;20025;-83
2021/12/12 03:51:26;;;;;;;108.55;46.20;;;-1.70;97.80;;;;;;5073955;28;20020;-82
2021/12/12 03:53:53;;;;;;;110.82;45.55;;;-1.70;98.00;;;;;;5072663;28;20017;-82
2021/12/12 03:56:20;;;;;;;104.72;45.80;;;-1.70;98.00;;;;;;5073226;28;20040;-82
2021/12/12 03:58:48;;;;;;;116.50;47.35;;;-1.70;98.00;;;;;;5072306;28;20027;-82
2021/12/12 04:01:24;;;;;;;112.38;46.70;;;-1.80;98.00;;;;;;5072329;28;20127;-82
2021/12/12 04:04:05;;;;;;;112.85;49.03;;;-1.70;98.20;;;;;;5082459;28;20102;-82
2021/12/12 04:06:32;;;;;;;112.07;47.70;;;-1.70;98.20;;;;;;5092484;28;20118;-81
2021/12/12 04:08:59;;;;;;;107.43;44.08;;;-1.80;98.20;;;;;;5092376;28;20626;-81
2021/12/12 04:11:34;;;;;;;98.13;42.25;;;-1.70;98.10;;;;;;5072231;28;20436;-83
2021/12/12 04:14:03;;;;;;;97.43;40.35;;;-1.80;98.00;;;;;;5073686;28;20027;-83
2021/12/12 04:16:31;;;;;;;99.80;40.38;;;-1.80;98.20;;;;;;5055767;28;20060;-83
2021/12/12 04:19:02;;;;;;;97.78;40.33;;;-1.80;98.40;;;;;;5072939;28;20039;-82
2021/12/12 04:21:29;;;;;;;115.18;43.45;;;-1.70;98.60;;;;;;5055722;28;20043;-84
2021/12/12 04:23:57;;;;;;;97.15;38.90;;;-1.70;98.80;;;;;;5073372;28;20032;-84
2021/12/12 04:26:33;;;;;;;98.53;37.53;;;-1.70;98.90;;;;;;5072056;28;20070;-84
2021/12/12 04:29:25;;;;;;;118.88;37.65;;;-1.70;99.00;;;;;;5072318;28;20050;-84
2021/12/12 04:31:55;;;;;;;111.75;42.22;;;-1.60;99.10;;;;;;5072865;28;20473;-84
2021/12/12 04:34:25;;;;;;;112.95;43.45;;;-1.60;99.20;;;;;;5072397;28;20024;-83
2021/12/12 04:36:53;;;;;;;113.32;43.10;;;-1.50;99.00;;;;;;5071961;28;20025;-83
2021/12/12 04:39:25;;;;;;;125.32;47.75;;;-1.50;98.90;;;;;;5073187;28;20466;-83
2021/12/12 04:41:53;;;;;;;;;;;-1.40;99.00;;;;;;5055864;28;20501;-82
2021/12/12 04:44:30;;;;;;;98.07;37.83;;;-1.40;99.00;;;;;;5071849;28;19940;-83
2021/12/12 04:50:36;;;;;;;109.55;41.58;;;-1.30;99.10;;;;;;5073454;28;20047;-83
2021/12/12 04:53:29;;;;;;;104.05;40.92;;;-1.30;99.20;;;;;;5073028;28;20016;-84
2021/12/12 04:56:19;;;;;;;;;;;-1.20;98.90;;;;;;5073724;28;20024;-83
2021/12/12 04:58:54;;;;;;;122.28;40.70;;;-1.20;98.60;;;;;;5062573;28;20383;-82
2021/12/12 05:01:52;;;;;;;136.65;44.92;;;-1.30;98.40;;;;;;5055049;28;20062;-84
2021/12/12 05:04:32;;;;;;;129.15;44.65;;;-1.20;98.10;;;;;;5055037;28;20039;-84
2021/12/12 05:07:25;;;;;;;128.57;42.58;;;-1.30;97.90;;;;;;5072793;28;20025;-84
2021/12/12 05:09:58;;;;;;;161.43;44.42;;;-1.30;97.90;;;;;;5073085;28;20102;-84
2021/12/12 05:12:37;;;;;;;185.00;45.22;;;-1.30;98.30;;;;;;5055757;28;20051;-85
2021/12/12 05:15:20;;;;;;;173.60;43.83;;;-1.30;97.90;;;;;;5055721;28;20021;-84
2021/12/12 05:18:01;;;;;;;224.73;45.88;;;-1.30;97.80;;;;;;5071898;28;20028;-83
2021/12/12 05:20:47;;;;;;;163.00;46.10;;;-1.30;98.00;;;;;;5073131;28;20111;-83
2021/12/12 05:23:16;;;;;;;194.32;44.10;;;-1.30;98.20;;;;;;5072939;28;20017;-84
2021/12/12 05:25:55;;;;;;;143.80;39.40;;;-1.30;98.30;;;;;;5071654;28;20036;-83
2021/12/12 05:28:48;;;;;;;189.52;40.10;;;-1.30;98.40;;;;;;5073272;28;20079;-83
2021/12/12 05:31:16;;;;;;;170.90;38.72;;;-1.30;98.60;;;;;;5056431;28;20161;-83
2021/12/12 05:33:44;;;;;;;257.13;47.42;;;-1.30;98.50;;;;;;5051447;28;20066;-83
2021/12/12 05:36:19;;;;;;;176.75;34.00;;;-1.40;98.30;;;;;;5073625;28;20086;-82
2021/12/12 05:38:55;;;;;;;206.70;39.40;;;-1.40;98.40;;;;;;5091235;28;20100;-81
2021/12/12 05:41:25;;;;;;;210.57;41.60;;;-1.50;98.40;;;;;;5087293;28;20462;-82
2021/12/12 05:43:56;;;;;;;196.00;43.63;;;-1.50;98.40;;;;;;5059066;28;20154;-83
2021/12/12 05:46:23;;;;;;;210.67;38.00;;;-1.50;98.20;;;;;;5075107;28;20044;-85
2021/12/12 05:48:53;;;;;;;231.93;38.55;;;-1.60;98.20;;;;;;5076167;28;20100;-84
2021/12/12 05:51:21;;;;;;;176.10;38.40;;;-1.60;98.00;;;;;;5075002;28;20025;-84
2021/12/12 05:53:53;;;;;;;168.13;41.75;;;-1.70;97.90;;;;;;5058607;28;20094;-84
2021/12/12 05:56:28;;;;;;;201.02;41.65;;;-1.70;97.70;;;;;;5075011;28;20489;-85
2021/12/12 05:58:58;;;;;;;154.32;39.88;;;-1.80;97.50;;;;;;5074713;28;20054;-85
2021/12/12 06:01:26;;;;;;;149.55;36.35;;;-1.80;97.40;;;;;;5075810;28;20466;-85
2021/12/12 06:03:53;;;;;;;112.93;31.73;;;-1.90;97.30;;;;;;5075909;28;20020;-84
2021/12/12 06:06:24;;;;;;;129.77;33.42;;;-1.90;97.40;;;;;;5074653;28;20020;-83
2021/12/12 06:08:59;;;;;;;101.30;31.27;;;-2.00;97.20;;;;;;5075991;28;20031;-82
2021/12/12 06:11:28;;;;;;;142.23;35.28;;;-2.00;97.20;;;;;;5076184;28;20051;-83
2021/12/12 06:13:56;;;;;;;128.13;32.80;;;-2.10;97.10;;;;;;5074133;28;20053;-83
2021/12/12 06:16:25;;;;;;;109.05;32.30;;;-2.10;97.00;;;;;;5074681;28;20040;-83
2021/12/12 06:18:58;;;;;;;98.30;30.77;;;-2.20;96.90;;;;;;5074312;28;20440;-82
2021/12/12 06:21:30;;;;;;;102.45;28.65;;;-2.20;96.90;;;;;;5074331;28;20024;-82
2021/12/12 06:23:59;;;;;;;103.13;28.13;;;-2.30;96.80;;;;;;5075663;28;20024;-83
2021/12/12 06:26:34;;;;;;;107.25;31.65;;;-2.40;96.70;;;;;;5057677;28;20053;-83
2021/12/12 06:29:21;;;;;;;109.90;28.55;;;-2.40;96.50;;;;;;5074158;28;20027;-81
2021/12/12 06:31:52;;;;;;;70.72;26.00;;;-2.50;96.70;;;;;;5075496;28;20031;-83
2021/12/12 06:34:18;;;;;;;;;;;-2.50;96.70;;;;;;5091328;28;20017;-82
2021/12/12 06:36:51;;;;;;;77.32;27.65;;;-2.60;96.50;;;;;;5074007;28;20046;-81
2021/12/12 06:39:18;;;;;;;71.68;28.80;;;-2.60;96.40;;;;;;5057451;28;20024;-81
2021/12/12 06:41:46;;;;;;;89.63;29.90;;;-2.60;96.40;;;;;;5073423;28;20393;-81
2021/12/12 06:44:13;;;;;;;119.15;31.90;;;-2.70;96.30;;;;;;5057859;28;20040;-82
2021/12/12 06:46:42;;;;;;;85.55;30.27;;;-2.70;96.30;;;;;;5075308;28;20049;-75
2021/12/12 06:49:13;;;;;;;78.47;28.88;;;-2.70;96.20;;;;;;5057166;28;20082;-75
2021/12/12 06:51:57;;;;;;;80.32;31.02;;;-2.80;95.70;;;;;;5074032;28;20537;-75
2021/12/12 06:54:25;;;;;;;104.38;29.67;;;-2.90;95.40;;;;;;5075187;28;20105;-75
2021/12/12 06:56:53;;;;;;;111.22;30.50;;;-2.90;95.60;;;;;;5075249;28;20603;-75
2021/12/12 06:59:24;;;;;;;114.50;28.08;;;-3.00;95.30;;;;;;5075072;28;20036;-75
2021/12/12 07:01:53;;;;;;;93.07;27.43;;;-3.10;95.20;;;;;;5075202;28;20526;-74
2021/12/12 07:04:32;;;;;;;102.40;29.48;;;-3.10;95.30;;;;;;5073678;28;20021;-76
2021/12/12 07:07:01;;;;;;;130.40;30.48;;;-3.20;95.20;;;;;;5078351;28;20138;-76
2021/12/12 07:09:44;;;;;;;100.60;31.27;;;-3.30;95.50;;;;;;5058655;28;20524;-74
2021/12/12 07:12:14;;;;;;;71.22;26.92;;;-3.30;95.70;;;;;;5073192;28;20055;-75
2021/12/12 07:14:43;;;;;;;82.30;28.13;;;-3.40;95.70;;;;;;5056833;28;20111;-74
2021/12/12 07:17:10;;;;;;;70.05;27.30;;;-3.40;95.70;;;;;;5073605;28;20094;-74
2021/12/12 07:19:40;;;;;;;79.45;28.50;;;-3.40;95.90;;;;;;5073507;28;20523;-74
2021/12/12 07:22:07;;;;;;;72.82;30.60;;;-3.40;95.60;;;;;;5074751;28;20025;-74
2021/12/12 07:24:38;;;;;;;77.03;30.85;;;-3.40;95.40;;;;;;5073115;28;20025;-72
2021/12/12 07:27:15;;;;;;;96.20;32.90;;;-3.40;95.20;;;;;;5073192;28;20076;-74
2021/12/12 07:29:41;;;;;;;99.18;34.90;;;-3.40;95.40;;;;;;5074616;28;20138;-74
2021/12/12 07:32:09;;;;;;;102.35;32.50;;;-3.30;94.90;;;;;;5074169;28;20030;-74
2021/12/12 07:34:38;;;;;;;107.00;28.23;;;-3.30;94.70;;;;;;5056530;28;20445;-75
2021/12/12 07:37:08;;;;;;;98.60;28.67;;;-3.30;94.50;;;;;;5072700;28;20041;-75
2021/12/12 07:39:41;;;;;;;73.50;27.50;;;-3.30;94.40;;;;;;5073241;28;20037;-74
2021/12/12 07:42:10;;;;;;;70.65;26.00;;;-3.30;94.30;;;;;;5074271;28;20021;-73
2021/12/12 07:44:40;;;;;;;66.75;26.67;;;-3.30;93.80;;;;;;5073171;28;20040;-72
2021/12/12 07:47:10;;;;;;;78.15;26.85;;;-3.40;93.80;;;;;;5094655;28;20036;-74
2021/12/12 07:49:41;;;;;;;123.55;28.23;;;-3.40;93.50;;;;;;5107786;28;20452;-73
2021/12/12 07:52:14;;;;;;;117.50;28.80;;;-3.50;93.60;;;;;;5099574;28;20114;-70
2021/12/12 07:54:49;;;;;;;77.57;23.88;;;-3.50;93.80;;;;;;5095662;28;20027;-70
2021/12/12 07:57:17;;;;;;;125.90;27.85;;;-3.50;94.00;;;;;;5099516;28;20075;-75
2021/12/12 07:59:47;;;;;;;76.70;26.42;;;-3.50;94.50;;;;;;5111128;28;20020;-75
2021/12/12 08:02:19;;;;;;;102.43;25.52;;;-3.40;94.80;;;;;;5094330;28;20039;-74
2021/12/12 08:04:49;;;;;;;86.50;24.10;;;-3.40;94.80;;;;;;5092968;28;20051;-73
2021/12/12 08:07:19;;;;;;;74.35;22.48;;;-3.30;94.90;;;;;;5108473;28;20038;-75
2021/12/12 08:09:46;;;;;;;65.68;22.33;;;-3.30;94.90;;;;;;5111934;27;20034;-71
2021/12/12 08:12:16;;;;;;;53.65;22.48;;;-3.20;95.20;;;;;;5059364;28;20031;-74
2021/12/12 08:14:43;;;;;;;59.80;21.73;;;-3.20;95.30;;;;;;5076254;28;20027;-73
2021/12/12 08:17:20;;;;;;;57.30;23.67;;;-3.10;95.50;;;;;;5107139;28;20032;-74
2021/12/12 08:19:51;;;;;;;67.95;27.52;;;-3.00;95.30;;;;;;5114610;28;20015;-74
2021/12/12 08:22:20;;;;;;;89.68;31.30;;;-2.90;95.10;;;;;;5114389;28;20051;-71
2021/12/12 08:25:09;;;;;;;63.63;25.60;;;-2.80;95.00;;;;;;5078115;28;20025;-74
2021/12/12 08:27:40;;;;;;;64.57;24.58;;;-2.60;95.00;;;;;;5083533;28;20031;-71
2021/12/12 08:30:08;;;;;;;61.65;24.95;;;-2.50;94.70;;;;;;5100132;28;20016;-70
2021/12/12 08:32:35;;;;;;;55.50;25.65;;;-2.30;94.30;;;;;;5092565;28;20067;-73
2021/12/12 08:35:26;;;;;;;48.75;23.23;;;-2.20;93.70;;;;;;5092769;28;20094;-73
2021/12/12 08:38:03;;;;;;;60.03;23.87;;;-2.10;93.00;;;;;;5096244;28;20085;-73
2021/12/12 08:40:33;;;;;;;54.20;22.73;;;-2.10;92.60;;;;;;5092735;28;20124;-76
2021/12/12 08:43:08;;;;;;;57.22;22.73;;;-2.00;92.40;;;;;;5098351;28;20110;-77
2021/12/12 08:45:42;;;;;;;53.85;25.38;;;-1.90;92.30;;;;;;5103220;28;20154;-75
2021/12/12 08:48:17;;;;;;;65.03;24.77;;;-1.80;92.30;;;;;;5109885;28;20055;-75
2021/12/12 08:50:48;;;;;;;60.33;24.58;;;-1.70;92.20;;;;;;5094269;28;20036;-79
2021/12/12 08:53:21;;;;;;;61.63;26.25;;;-1.60;92.20;;;;;;5107636;28;20115;-78
2021/12/12 08:55:55;;;;;;;60.05;27.67;;;-1.50;91.90;;;;;;5095142;28;20461;-73
2021/12/12 08:58:24;;;;;;;60.80;26.40;;;-1.40;91.60;;;;;;5092493;28;20495;-74
2021/12/12 09:01:02;;;;;;;56.97;26.50;;;-1.30;91.40;;;;;;5095989;28;20091;-74
2021/12/12 09:03:59;;;;;;;65.00;28.08;;;-1.20;91.40;;;;;;5106851;28;20051;-75
2021/12/12 09:06:34;;;;;;;64.07;28.50;;;-1.10;91.10;;;;;;5110720;28;20026;-77
2021/12/12 09:09:09;;;;;;;59.90;24.98;;;-1.00;91.30;;;;;;5110529;28;20480;-76
2021/12/12 09:11:47;;;;;;;75.97;31.33;;;-0.80;91.40;;;;;;5099353;28;20020;-76
2021/12/12 09:14:43;;;;;;;59.33;27.95;;;-0.60;90.90;;;;;;5086367;28;20019;-73
2021/12/12 09:17:22;;;;;;;64.82;28.40;;;-0.50;90.80;;;;;;5105144;28;20107;-77
2021/12/12 09:20:17;;;;;;;58.72;27.98;;;-0.20;90.90;;;;;;5098237;28;20544;-78
2021/12/12 09:22:56;;;;;;;61.38;27.60;;;0.00;90.40;;;;;;5113936;28;20453;-77
2021/12/12 09:25:50;;;;;;;63.78;27.02;;;0.30;89.90;;;;;;5099879;28;20024;-73
2021/12/12 09:28:34;;;;;;;63.67;28.10;;;0.50;86.50;;;;;;5088408;28;20080;-77
2021/12/12 09:31:28;;;;;;;64.85;29.10;;;0.60;86.40;;;;;;5086877;28;20736;-76
2021/12/12 09:34:11;;;;;;;65.65;29.65;;;0.70;86.80;;;;;;5089951;28;20028;-78
2021/12/12 09:37:12;;;;;;;60.97;29.08;;;1.00;86.30;;;;;;5084192;28;20035;-77
2021/12/12 09:39:54;;;;;;;56.83;27.70;;;1.10;84.60;;;;;;5085962;28;20032;-71
2021/12/12 09:42:49;;;;;;;59.15;28.38;;;1.30;83.80;;;;;;5076981;28;20028;-77
2021/12/12 09:45:37;;;;;;;66.05;29.77;;;1.50;82.90;;;;;;5076245;28;20424;-78
2021/12/12 09:51:33;;;;;;;64.68;31.63;;;1.60;81.20;;;;;;5076474;28;20086;-78
2021/12/12 09:54:16;;;;;;;63.20;29.30;;;1.50;81.90;;;;;;5077536;28;20024;-73
2021/12/12 09:57:15;;;;;;;59.65;29.73;;;1.60;82.80;;;;;;5111442;28;20031;-72
2021/12/12 10:00:10;;;;;;;69.82;30.85;;;1.70;82.10;;;;;;5115429;28;20031;-72
2021/12/12 10:02:56;;;;;;;66.03;32.22;;;1.70;81.40;;;;;;5116677;28;20031;-71
2021/12/12 10:05:38;;;;;;;65.78;31.52;;;1.70;81.60;;;;;;5075971;28;20028;-72
2021/12/12 10:08:37;;;;;;;71.20;33.20;;;1.80;81.50;;;;;;5074468;28;20377;-71
2021/12/12 10:11:38;;;;;;;60.83;31.42;;;1.80;81.40;;;;;;5060220;28;20060;-73
2021/12/12 10:14:30;;;;;;;69.20;32.97;;;1.80;81.90;;;;;;5074445;28;20112;-71
2021/12/12 10:17:26;;;;;;;69.47;33.03;;;1.90;82.90;;;;;;5073582;28;20064;-72
2021/12/12 10:20:05;;;;;;;69.05;32.33;;;2.10;82.40;;;;;;5080691;28;20487;-73
2021/12/12 10:22:49;;;;;;;72.85;31.95;;;2.20;81.40;;;;;;5095841;28;20467;-74
2021/12/12 10:25:50;;;;;;;67.78;33.72;;;2.30;81.10;;;;;;5095882;28;20028;-72
2021/12/12 10:28:56;;;;;;;68.68;35.55;;;2.40;80.80;;;;;;5094643;28;20067;-74
2021/12/12 10:31:28;;;;;;;79.80;37.00;;;2.40;80.10;;;;;;5013543;28;20037;-75
2021/12/12 10:33:57;;;;;;;79.00;38.38;;;2.30;80.10;;;;;;5079326;28;20032;-75
2021/12/12 10:36:36;;;;;;;75.40;38.55;;;2.30;80.40;;;;;;5109774;28;20024;-72
2021/12/12 10:39:08;;;;;;;83.47;40.90;;;2.40;79.70;;;;;;5116338;28;20034;-73
2021/12/12 10:41:54;;;;;;;83.68;39.35;;;2.40;80.00;;;;;;5093895;28;20072;-75
2021/12/12 10:44:26;;;;;;;88.68;39.67;;;2.40;80.00;;;;;;5085636;28;20582;-74
2021/12/12 10:47:05;;;;;;;93.38;42.63;;;2.40;80.10;;;;;;5085451;28;20064;-73
2021/12/12 10:49:52;;;;;;;81.40;40.13;;;2.40;79.80;;;;;;5090783;28;20032;-73
2021/12/12 10:52:46;;;;;;;83.30;41.65;;;2.40;80.80;;;;;;5085148;28;20028;-75
2021/12/12 10:55:59;;;;;;;90.63;41.80;;;2.40;80.90;;;;;;5085298;28;20040;-75
2021/12/12 10:58:44;;;;;;;93.45;40.97;;;2.50;81.20;;;;;;5075485;28;20036;-75
2021/12/12 11:01:12;;;;;;;93.15;42.97;;;2.60;81.10;;;;;;5075916;28;20032;-79
2021/12/12 11:03:46;;;;;;;92.30;41.72;;;2.60;80.60;;;;;;5058931;28;20033;-80
2021/12/12 11:06:31;;;;;;;96.80;43.25;;;2.70;80.40;;;;;;5073959;28;20469;-77
2021/12/12 11:09:29;;;;;;;94.00;45.35;;;2.70;80.30;;;;;;5089430;28;20111;-78
2021/12/12 11:12:22;;;;;;;124.88;53.15;;;2.80;81.20;;;;;;5095266;28;20035;-79
2021/12/12 11:15:07;;;;;;;133.90;54.13;;;2.80;80.50;;;;;;5087319;28;20058;-77
2021/12/12 11:17:43;;;;;;;128.13;54.90;;;2.80;80.60;;;;;;5093643;28;20380;-78
2021/12/12 11:20:29;;;;;;;133.15;54.00;;;2.90;80.70;;;;;;5094835;28;20465;-76
2021/12/12 11:23:04;;;;;;;116.13;49.53;;;2.90;80.40;;;;;;5092782;28;20028;-77
2021/12/12 11:25:41;;;;;;;119.43;53.75;;;3.00;80.10;;;;;;5084324;28;20059;-79
2021/12/12 11:28:24;;;;;;;115.40;52.92;;;3.00;79.70;;;;;;5094350;28;20020;-77
2021/12/12 11:31:37;;;;;;;115.35;52.63;;;3.10;80.50;;;;;;5091219;28;20122;-75
2021/12/12 11:34:19;;;;;;;112.43;48.08;;;3.10;79.10;;;;;;5095857;28;20027;-77
2021/12/12 11:36:59;;;;;;;115.30;52.72;;;3.10;79.10;;;;;;5085551;28;20088;-77
2021/12/12 11:40:02;;;;;;;115.90;51.30;;;3.10;79.00;;;;;;5074486;28;20377;-78
2021/12/12 11:42:51;;;;;;;112.30;52.30;;;3.10;79.00;;;;;;5071328;28;20067;-78
2021/12/12 11:45:39;;;;;;;120.47;52.95;;;3.10;78.90;;;;;;5074490;28;20571;-81
2021/12/12 11:48:26;;;;;;;105.45;49.53;;;3.10;78.30;;;;;;5074497;28;20135;-78
2021/12/12 11:51:37;;;;;;;103.55;49.50;;;3.20;77.70;;;;;;5074022;28;20017;-78
2021/12/12 11:54:12;;;;;;;111.60;49.25;;;3.20;77.80;;;;;;5001956;28;20583;-77
2021/12/12 11:57:02;;;;;;;98.85;49.38;;;3.30;77.70;;;;;;5074301;28;20020;-78
2021/12/12 12:00:01;;;;;;;111.22;53.55;;;3.30;77.60;;;;;;5074882;28;20025;-80
2021/12/12 12:02:50;;;;;;;124.63;55.70;;;3.40;77.10;;;;;;5074364;28;20020;-76
2021/12/12 12:05:54;;;;;;;121.35;57.90;;;3.50;76.80;;;;;;5082159;28;20393;-81
2021/12/12 12:09:04;;;;;;;135.73;60.05;;;3.60;76.40;;;;;;5087250;28;20020;-80
2021/12/12 12:12:02;;;;;;;128.50;59.72;;;3.70;76.00;;;;;;5057024;28;20047;-82
2021/12/12 12:15:06;;;;;;;128.18;60.05;;;3.80;76.00;;;;;;5091621;28;20028;-79
2021/12/12 12:18:14;;;;;;;125.65;59.72;;;3.80;76.40;;;;;;5094207;28;20160;-82
2021/12/12 12:21:15;;;;;;;136.75;64.43;;;3.90;76.70;;;;;;5095771;28;20032;-79
2021/12/12 12:26:53;;;;;;;155.18;67.43;;;4.00;76.60;;;;;;5093840;28;20065;-78
2021/12/12 12:29:38;;;;;;;149.75;66.72;;;4.20;75.00;;;;;;5094715;28;20035;-75
2021/12/12 12:32:42;;;;;;;143.30;66.22;;;4.30;74.20;;;;;;5093017;28;20377;-74
2021/12/12 12:35:26;;;;;;;147.02;66.90;;;4.30;73.60;;;;;;5092184;28;20079;-74
2021/12/12 12:38:29;;;;;;;129.43;59.10;;;4.20;72.90;;;;;;5093615;28;20086;-78
2021/12/12 12:41:19;;;;;;;130.45;61.33;;;4.20;72.70;;;;;;5089324;28;20039;-76
2021/12/12 12:44:23;;;;;;;122.75;56.95;;;4.10;72.50;;;;;;5071750;28;20035;-78
2021/12/12 12:47:24;;;;;;;135.27;61.22;;;4.00;72.30;;;;;;5085387;28;20075;-77
2021/12/12 12:50:40;;;;;;;136.07;63.13;;;4.00;72.80;;;;;;5084054;28;20021;-79
2021/12/12 12:53:43;;;;;;;136.48;62.95;;;3.90;72.70;;;;;;5017237;28;20045;-81
2021/12/12 12:56:48;;;;;;;141.30;66.90;;;3.80;73.20;;;;;;5075942;28;20059;-79
2021/12/12 12:59:40;;;;;;;153.75;68.80;;;3.70;73.20;;;;;;5086467;28;20020;-79
2021/12/12 13:02:17;;;;;;;173.10;73.15;;;3.60;73.00;;;;;;5083872;28;20166;-79
2021/12/12 13:05:21;;;;;;;153.52;69.22;;;3.60;73.20;;;;;;5077494;28;20038;-76
2021/12/12 13:08:09;;;;;;;146.00;67.88;;;3.50;73.60;;;;;;5075813;28;20021;-75
2021/12/12 13:10:39;;;;;;;145.52;65.57;;;3.40;74.10;;;;;;5079675;28;20027;-75
2021/12/12 13:13:30;;;;;;;156.52;68.57;;;3.40;74.60;;;;;;5069999;28;20497;-77
2021/12/12 13:16:36;;;;;;;155.85;67.95;;;3.50;75.80;;;;;;5072458;28;20024;-74
2021/12/12 13:19:43;;;;;;;142.32;64.57;;;3.50;75.20;;;;;;5071393;28;20378;-77
2021/12/12 13:22:48;;;;;;;129.57;58.95;;;3.50;74.90;;;;;;5073026;28;20027;-77
2021/12/12 13:25:27;;;;;;;135.82;61.17;;;3.50;74.50;;;;;;5066974;28;20025;-74
2021/12/12 13:28:31;;;;;;;120.15;56.13;;;3.50;74.70;;;;;;5091573;28;20035;-75
2021/12/12 13:31:16;;;;;;;134.20;60.58;;;3.50;74.80;;;;;;5093011;28;20025;-75
2021/12/12 13:34:16;;;;;;;142.82;59.60;;;3.50;75.10;;;;;;5092972;28;20381;-76
2021/12/12 13:36:50;;;;;;;126.30;58.35;;;3.60;75.00;;;;;;5092923;28;20165;-73
2021/12/12 13:39:58;;;;;;;130.30;59.33;;;3.50;74.50;;;;;;5093291;28;20039;-79
2021/12/12 13:42:48;;;;;;;129.73;58.10;;;3.60;74.60;;;;;;5074345;28;20108;-74
2021/12/12 13:45:53;;;;;;;127.75;56.38;;;3.50;74.50;;;;;;5092805;28;20090;-75
2021/12/12 13:48:39;;;;;;;128.00;54.92;;;3.60;74.60;;;;;;5092058;28;20016;-75
2021/12/12 13:51:44;;;;;;;133.80;57.63;;;3.50;74.80;;;;;;5092892;28;20069;-76